To NAV CANADA Home Page Login to a new session Search on AWWS site Disclaimer Vers la page française équivalente Tips FAQ What's new on the site To the Forecasts and Observations / NOTAM section To "File a Flight Plan" website Publications and other links Update of the User's profile FIC Telephone Numbers My Weather Data Folder Route Weather Data Regional Weather Data Local Weather Data To the Forecasts and Observations / NOTAM section
Request Generated 03/21/2019 at 01:29:33 UTC . Weather information available at that time is displayed.

METAR/TAF

PRINCE ALBERT (GLASS FIELD)/SK    

METAR CYPA 210100Z 22006KT 15SM FEW250 05/M01 A3003 RMK CI1 CI TR SLP194=
METAR CYPA 210000Z 22008KT 15SM FEW250 07/M00 A3003 RMK CI1 SLP193=
METAR CYPA 202300Z 23007KT 15SM FEW250 08/M00 A3004 RMK CI1 SLP195=

TAF CYPA 210038Z 2101/2113 22007KT P6SM FEW250
BECMG 2103/2105 VRB03KT
RMK NXT FCST BY 210700Z=
Your time UTC time
Weather data provided by Environment Canada and NAV CANADA